Time;durP1;ratioP1;P1;durP2;ratioP2;P2;SDS_P1;SDS_P2;PMS_P1;PMS_P2;Temp;Humidity;BMP_temperature;BMP_pressure;BME280_temperature;BME280_humidity;BME280_pressure;Samples;Min_cycle;Max_cycle;Signal;HPM_P1;HPM_P2
2021/01/30 00:00:31;;;;;;;;;52.25;36.00;;;;;3.81;95.13;97846.38;5027129;28;8858;-55
2021/01/30 00:02:58;;;;;;;;;47.75;41.00;;;;;3.73;94.90;97839.75;5010849;28;8855;-55
2021/01/30 00:05:27;;;;;;;;;51.75;41.75;;;;;3.60;95.98;97838.81;5011678;28;9651;-56
2021/01/30 00:08:04;;;;;;;;;55.50;45.25;;;;;3.43;95.90;97837.25;5010842;28;8873;-56
2021/01/30 00:10:31;;;;;;;;;54.75;42.25;;;;;3.46;96.17;97839.69;5011215;28;9490;-55
2021/01/30 00:12:59;;;;;;;;;52.50;39.00;;;;;3.38;96.21;97835.81;5011807;28;8835;-56
2021/01/30 00:15:28;;;;;;;;;56.50;45.75;;;;;3.48;95.90;97839.63;5011743;28;8885;-56
2021/01/30 00:17:57;;;;;;;;;46.50;39.25;;;;;3.46;96.07;97836.19;5011052;28;8847;-56
2021/01/30 00:20:30;;;;;;;;;51.00;41.25;;;;;3.51;95.92;97839.41;5011833;28;8855;-55
2021/01/30 00:22:58;;;;;;;;;53.50;38.25;;;;;3.36;95.80;97850.97;5008319;28;8839;-56
2021/01/30 00:25:30;;;;;;;;;49.75;43.00;;;;;3.49;95.50;97851.91;5011542;28;8847;-54
2021/01/30 00:27:58;;;;;;;;;56.00;43.25;;;;;3.34;95.77;97852.88;5011706;28;8847;-56
2021/01/30 00:30:28;;;;;;;;;48.50;35.25;;;;;3.48;95.06;97860.84;5011293;28;8847;-56
2021/01/30 00:32:58;;;;;;;;;50.00;37.75;;;;;3.35;95.59;97860.75;5011222;28;9611;-55
2021/01/30 00:35:28;;;;;;;;;46.00;40.25;;;;;3.69;95.55;97854.19;5010276;28;8859;-56
2021/01/30 00:37:55;;;;;;;;;44.75;39.00;;;;;3.63;95.24;97854.53;5026074;28;8857;-54
2021/01/30 00:40:23;;;;;;;;;46.50;39.25;;;;;3.78;94.33;97863.34;5011435;28;8867;-56
2021/01/30 00:42:51;;;;;;;;;43.25;32.50;;;;;3.60;94.68;97865.34;5011292;28;9568;-56
2021/01/30 00:45:23;;;;;;;;;42.75;30.75;;;;;3.66;94.47;97870.31;5010176;28;8842;-56
2021/01/30 00:47:51;;;;;;;;;53.25;42.25;;;;;3.78;93.79;97867.81;5011876;28;8831;-56
2021/01/30 00:50:19;;;;;;;;;46.00;29.75;;;;;3.81;94.03;97867.63;5012558;28;8871;-56
2021/01/30 00:52:47;;;;;;;;;55.25;39.50;;;;;3.95;93.17;97871.13;5017177;28;8835;-55
2021/01/30 00:55:19;;;;;;;;;34.50;28.25;;;;;3.81;93.81;97867.63;5015096;28;8893;-56
2021/01/30 00:57:46;;;;;;;;;42.50;35.00;;;;;3.78;93.51;97868.66;5014277;28;8855;-55
2021/01/30 01:00:23;;;;;;;;;34.00;29.75;;;;;3.70;93.82;97870.94;5015437;28;8866;-54
2021/01/30 01:02:51;;;;;;;;;32.75;27.00;;;;;3.68;93.94;97875.50;5014491;28;8842;-54
2021/01/30 01:05:19;;;;;;;;;33.75;31.00;;;;;3.68;94.05;97879.00;5015633;28;8847;-56
2021/01/30 01:07:46;;;;;;;;;40.00;30.75;;;;;3.82;94.25;97866.66;5015316;28;8901;-59
2021/01/30 01:10:17;;;;;;;;;40.25;37.75;;;;;3.64;93.92;97869.53;5015092;28;8843;-55
2021/01/30 01:12:44;;;;;;;;;31.25;24.50;;;;;3.68;93.67;97865.72;4999347;28;8847;-56
2021/01/30 01:15:11;;;;;;;;;33.75;26.75;;;;;3.46;94.63;97858.25;5015027;28;8842;-56
2021/01/30 01:17:38;;;;;;;;;37.50;24.25;;;;;3.46;94.17;97865.38;5014669;28;8869;-55
2021/01/30 01:20:11;;;;;;;;;36.50;26.00;;;;;3.36;94.31;97850.97;5015291;28;8847;-55
2021/01/30 01:22:38;;;;;;;;;32.75;25.25;;;;;3.18;94.72;97864.41;5030795;28;8928;-56
2021/01/30 01:25:06;;;;;;;;;21.50;14.00;;;;;3.55;94.96;97863.94;5014673;28;8843;-55
2021/01/30 01:27:33;;;;;;;;;31.00;25.25;;;;;3.59;94.38;97874.28;5014922;28;8851;-56
2021/01/30 01:30:00;;;;;;;;;30.00;26.50;;;;;3.69;93.48;97875.41;5013561;28;8863;-56
2021/01/30 01:32:27;;;;;;;;;27.50;23.00;;;;;3.74;93.74;97878.63;5014610;28;9548;-53
2021/01/30 01:34:54;;;;;;;;;21.67;17.33;;;;;3.99;93.28;97863.78;5015010;28;8850;-55
2021/01/30 01:37:21;;;;;;;;;28.67;20.33;;;;;3.89;92.62;97875.94;5014025;28;8862;-55
2021/01/30 01:39:48;;;;;;;;;25.33;18.00;;;;;4.00;92.42;97872.59;5014782;28;8847;-56
2021/01/30 01:42:21;;;;;;;;;25.33;18.00;;;;;3.91;92.83;97874.91;5014496;28;8847;-54
2021/01/30 01:44:50;;;;;;;;;17.00;14.00;;;;;3.87;92.78;97883.16;5013331;28;8892;-54
2021/01/30 01:47:33;;;;;;;;;18.33;16.33;;;;;4.00;93.42;97870.78;5029931;28;8873;-55
2021/01/30 01:50:15;;;;;;;;;22.33;16.00;;;;;3.90;92.78;97869.69;5029395;28;8846;-55
2021/01/30 01:52:43;;;;;;;;;18.33;18.33;;;;;3.85;93.08;97870.00;5030031;28;9707;-56
2021/01/30 01:55:15;;;;;;;;;16.67;13.67;;;;;3.94;92.70;97874.69;5013876;28;8857;-54
2021/01/30 01:57:52;;;;;;;;;21.00;14.33;;;;;3.70;93.28;97871.78;5011889;28;8898;-55
2021/01/30 02:00:22;;;;;;;;;19.00;11.00;;;;;3.78;93.45;97881.09;5026605;28;8889;-55
2021/01/30 02:02:52;;;;;;;;;17.67;15.00;;;;;3.66;93.45;97880.91;5029355;28;8863;-54
2021/01/30 02:05:27;;;;;;;;;15.67;11.67;;;;;3.53;93.41;97877.31;5029426;28;8855;-56
2021/01/30 02:07:59;;;;;;;;;23.33;14.67;;;;;3.47;94.09;97875.88;5013365;28;8877;-55
2021/01/30 02:10:30;;;;;;;;;20.67;14.33;;;;;3.42;94.46;97879.78;5013271;28;8843;-56
2021/01/30 02:13:06;;;;;;;;;21.33;13.33;;;;;3.31;93.80;97883.09;5014167;28;8823;-56
2021/01/30 02:15:33;;;;;;;;;18.67;14.67;;;;;3.38;94.37;97886.22;5029727;28;8902;-56
2021/01/30 02:18:24;;;;;;;;;22.00;16.67;;;;;3.24;94.67;97893.22;5012762;28;8846;-58
2021/01/30 02:21:58;;;;;;;;;17.00;13.67;;;;;3.22;94.93;97895.13;5013533;28;8858;-55
2021/01/30 02:25:11;;;;;;;;;19.00;10.00;;;;;3.45;94.42;97899.03;5013042;28;8875;-54
2021/01/30 02:28:05;;;;;;;;;12.33;12.33;;;;;3.41;94.52;97901.94;5022291;28;8833;-56
2021/01/30 02:31:15;;;;;;;;;15.00;13.00;;;;;2.96;95.25;97901.13;5025946;28;8868;-56
2021/01/30 02:34:32;;;;;;;;;19.33;13.67;;;;;2.96;95.45;97898.47;5011158;28;8843;-56
2021/01/30 02:37:32;;;;;;;;;16.00;10.50;;;;;2.96;95.34;97906.44;5012415;28;8925;-56
2021/01/30 02:40:08;;;;;;;;;13.33;10.33;;;;;2.84;95.25;97913.28;5010619;28;8901;-56
2021/01/30 02:42:44;;;;;;;;;13.33;10.00;;;;;2.58;95.81;97922.75;5012214;28;8873;-56
2021/01/30 02:45:25;;;;;;;;;16.00;10.00;;;;;2.49;96.49;97923.31;5012848;28;8861;-56
2021/01/30 02:48:09;;;;;;;;;13.67;11.00;;;;;2.61;96.71;97930.56;5008196;28;8869;-56
2021/01/30 02:50:45;;;;;;;;;17.25;13.00;;;;;2.29;97.17;97922.66;5009269;28;8892;-56
2021/01/30 02:53:24;;;;;;;;;13.00;13.00;;;;;2.54;97.49;97929.19;5009464;28;8878;-56
2021/01/30 02:56:01;;;;;;;;;11.00;10.00;;;;;2.39;96.90;97929.09;5028987;28;8870;-56
2021/01/30 02:58:43;;;;;;;;;15.00;12.50;;;;;2.45;96.88;97922.63;5012737;28;8823;-54
2021/01/30 03:01:10;;;;;;;;;12.67;7.00;;;;;2.74;96.41;97925.38;5012560;28;9561;-55
2021/01/30 03:03:39;;;;;;;;;5.00;5.00;;;;;3.00;95.08;97927.38;5013557;28;8851;-56
2021/01/30 03:06:18;;;;;;;;;5.00;5.00;;;;;2.95;95.04;97931.22;5024507;28;8845;-54
2021/01/30 03:09:06;;;;;;;;;7.00;7.00;;;;;3.01;95.03;97930.88;5027936;28;8847;-56
2021/01/30 03:11:55;;;;;;;;;7.00;4.00;;;;;3.08;94.73;97933.06;5012639;28;8847;-55
2021/01/30 03:14:33;;;;;;;;;1.00;0.00;;;;;3.22;93.38;97934.88;4998771;28;8860;-56
2021/01/30 03:17:02;;;;;;;;;12.67;9.33;;;;;3.24;93.85;97938.31;5027870;28;8885;-54
2021/01/30 03:19:32;;;;;;;;;8.00;8.00;;;;;3.34;94.05;97938.59;5012918;28;8838;-56
2021/01/30 03:22:06;;;;;;;;;10.00;8.00;;;;;3.42;93.22;97939.00;5028052;28;8846;-56
2021/01/30 03:24:33;;;;;;;;;11.00;4.67;;;;;3.72;93.82;97925.66;5027935;28;8865;-56
2021/01/30 03:27:00;;;;;;;;;6.00;4.00;;;;;3.62;92.44;97927.16;5026078;28;8853;-55
2021/01/30 03:29:27;;;;;;;;;5.00;4.00;;;;;3.36;91.98;97923.44;5012506;28;8853;-56
2021/01/30 03:31:54;;;;;;;;;6.33;5.00;;;;;3.28;93.47;97929.22;5012708;28;8878;-56
2021/01/30 03:34:21;;;;;;;;;8.00;7.00;;;;;3.20;92.94;97931.47;4994517;28;8842;-55
2021/01/30 03:36:48;;;;;;;;;17.33;10.67;;;;;3.36;93.13;97925.25;5027404;28;8884;-54
2021/01/30 03:39:18;;;;;;;;;28.75;22.75;;;;;3.16;93.37;97927.31;5012142;28;8885;-56
2021/01/30 03:41:46;;;;;;;;;13.00;10.00;;;;;3.16;93.35;97929.97;5004959;28;8850;-55
2021/01/30 03:44:15;;;;;;;;;13.33;10.67;;;;;3.21;93.06;97935.84;5012432;28;8859;-56
2021/01/30 03:46:43;;;;;;;;;8.00;8.00;;;;;3.33;92.83;97928.09;5011908;28;8855;-55
2021/01/30 03:49:10;;;;;;;;;11.00;7.00;;;;;3.19;92.84;97940.38;5011833;28;8932;-56
2021/01/30 03:51:37;;;;;;;;;14.67;9.33;;;;;3.47;93.08;97938.69;4999601;28;8835;-55
2021/01/30 03:54:05;;;;;;;;;5.00;5.00;;;;;3.45;92.14;97945.91;5011277;28;8850;-56
2021/01/30 03:56:32;;;;;;;;;6.67;4.00;;;;;3.42;92.70;97939.00;5011933;28;8877;-55
2021/01/30 03:58:59;;;;;;;;;5.00;4.00;;;;;3.40;92.10;97938.25;5011667;28;8953;-56
2021/01/30 04:01:33;;;;;;;;;5.00;5.00;;;;;3.33;92.82;97933.41;5011804;28;8855;-56
2021/01/30 04:04:06;;;;;;;;;6.33;2.00;;;;;3.47;92.45;97930.75;5011980;28;8859;-54
2021/01/30 04:06:33;;;;;;;;;4.00;2.00;;;;;3.55;92.37;97928.47;5010206;28;8823;-54
2021/01/30 04:09:00;;;;;;;;;4.00;2.67;;;;;3.68;91.59;97926.75;5011614;28;8835;-56
2021/01/30 04:11:30;;;;;;;;;2.67;2.67;;;;;3.83;91.01;97926.78;5026878;28;8862;-56
2021/01/30 04:13:59;;;;;;;;;2.00;2.00;;;;;4.06;89.79;97928.84;5011348;28;8876;-54
2021/01/30 04:16:26;;;;;;;;;8.00;4.00;;;;;4.00;89.61;97934.50;5026902;28;8890;-54
2021/01/30 04:18:54;;;;;;;;;7.00;3.33;;;;;4.10;89.65;97935.66;5012031;28;8863;-55
2021/01/30 04:21:22;;;;;;;;;2.67;2.00;;;;;4.12;89.24;97936.41;5010804;28;8854;-54
2021/01/30 04:23:50;;;;;;;;;5.00;5.00;;;;;4.07;89.17;97943.81;5010196;28;8897;-55
2021/01/30 04:26:19;;;;;;;;;7.67;5.00;;;;;4.16;88.73;97937.94;4992791;28;8899;-55
2021/01/30 04:28:49;;;;;;;;;5.00;5.00;;;;;4.18;89.75;97941.31;5021066;28;8862;-55
2021/01/30 04:31:17;;;;;;;;;5.00;4.00;;;;;3.80;90.11;97941.09;5010835;28;8862;-57
2021/01/30 04:33:49;;;;;;;;;11.67;4.67;;;;;3.67;91.11;97948.97;5011733;28;8851;-56
2021/01/30 04:36:18;;;;;;;;;3.67;3.33;;;;;3.67;91.32;97956.06;5011500;28;8864;-55
2021/01/30 04:38:45;;;;;;;;;8.00;7.00;;;;;3.54;91.23;97955.97;5026944;28;8847;-55
2021/01/30 04:41:49;;;;;;;;;14.33;10.00;;;;;3.31;91.40;97954.69;5026466;28;8838;-55
2021/01/30 04:45:09;;;;;;;;;14.67;12.33;;;;;3.28;92.38;97960.19;5024184;28;8842;-54
2021/01/30 04:48:14;;;;;;;;;16.33;12.33;;;;;3.25;91.88;97950.63;5007430;28;8869;-56
2021/01/30 04:50:46;;;;;;;;;10.00;5.00;;;;;3.46;91.57;97950.28;5011761;28;8831;-54
2021/01/30 04:53:18;;;;;;;;;3.33;2.00;;;;;3.34;91.44;97948.34;5026429;28;8836;-56
2021/01/30 04:56:17;;;;;;;;;10.33;7.00;;;;;3.35;91.56;97944.78;5011297;28;8937;-56
2021/01/30 04:59:02;;;;;;;;;9.33;7.00;;;;;3.43;91.14;97943.34;5012555;28;8828;-54
2021/01/30 05:01:43;;;;;;;;;5.67;5.00;;;;;3.58;90.61;97960.16;5009757;28;8831;-55
2021/01/30 05:04:32;;;;;;;;;6.33;2.67;;;;;3.52;90.52;97953.38;5011565;28;8831;-56
2021/01/30 05:07:25;;;;;;;;;4.67;4.67;;;;;3.47;91.28;97952.81;5018229;28;8884;-56
2021/01/30 05:10:29;;;;;;;;;10.33;5.67;;;;;3.33;91.43;97952.81;4996480;28;8847;-55
2021/01/30 05:13:27;;;;;;;;;10.67;7.00;;;;;3.22;91.79;97961.41;5006009;28;8846;-55
2021/01/30 05:16:08;;;;;;;;;14.33;9.33;;;;;3.13;92.02;97966.41;5014068;28;8852;-53
2021/01/30 05:18:45;;;;;;;;;18.25;15.00;;;;;3.26;92.08;97962.91;5012806;28;8863;-55
2021/01/30 05:21:36;;;;;;;;;17.50;14.00;;;;;3.01;92.12;97965.34;5026324;28;8835;-56
2021/01/30 05:24:04;;;;;;;;;14.67;13.00;;;;;3.05;92.03;97969.50;5010813;28;8831;-55
2021/01/30 05:26:37;;;;;;;;;17.50;13.00;;;;;3.01;92.03;97973.28;5026423;28;8869;-54
2021/01/30 05:29:19;;;;;;;;;18.50;15.00;;;;;3.02;92.10;97965.22;5003819;28;8862;-55
2021/01/30 05:31:57;;;;;;;;;32.00;28.75;;;;;3.02;91.99;97970.53;5034666;28;8858;-55
2021/01/30 05:34:34;;;;;;;;;22.25;18.00;;;;;3.35;92.38;97976.59;5022287;28;9000;-54
2021/01/30 05:37:19;;;;;;;;;21.00;13.00;;;;;3.18;91.46;97978.44;5009895;28;8881;-56
2021/01/30 05:40:17;;;;;;;;;16.33;10.67;;;;;3.38;90.58;97987.88;5015279;28;8850;-55
2021/01/30 05:43:15;;;;;;;;;28.50;19.25;;;;;3.81;91.57;97997.69;5014070;28;8871;-55
2021/01/30 05:45:51;;;;;;;;;17.00;13.00;;;;;3.55;91.08;97994.81;5015665;28;8906;-58
2021/01/30 05:48:30;;;;;;;;;15.33;11.00;;;;;3.15;91.31;97985.72;5009594;28;8851;-58
2021/01/30 05:51:21;;;;;;;;;19.00;18.75;;;;;3.02;91.82;97985.59;5014060;28;8858;-55
2021/01/30 05:53:50;;;;;;;;;20.50;17.75;;;;;3.19;91.70;97992.56;5014125;28;8855;-58
2021/01/30 05:56:17;;;;;;;;;29.75;28.50;;;;;3.04;92.10;97995.16;5013659;28;8846;-57
2021/01/30 05:58:46;;;;;;;;;44.00;32.00;;;;;3.19;91.70;97996.06;5014318;28;9560;-54
2021/01/30 06:01:16;;;;;;;;;37.00;25.75;;;;;3.18;91.50;97997.00;5014242;28;8886;-55
2021/01/30 06:04:09;;;;;;;;;17.25;9.50;;;;;2.93;91.85;97996.75;5013710;28;8866;-55
2021/01/30 06:06:55;;;;;;;;;31.25;23.00;;;;;2.87;92.01;97997.94;5014611;28;8855;-56
2021/01/30 06:09:43;;;;;;;;;17.75;14.50;;;;;3.18;91.86;98012.06;5013456;28;8835;-56
2021/01/30 06:12:29;;;;;;;;;19.25;16.25;;;;;3.12;91.79;98007.97;5014163;28;8933;-57
2021/01/30 06:15:21;;;;;;;;;22.50;19.00;;;;;3.15;91.57;98012.25;5027998;28;8913;-56
2021/01/30 06:17:48;;;;;;;;;30.00;20.00;;;;;3.19;91.11;98013.78;5003314;28;9592;-55
2021/01/30 06:20:20;;;;;;;;;18.00;16.00;;;;;3.10;91.41;98009.84;5029198;28;8866;-55
2021/01/30 06:23:10;;;;;;;;;20.00;16.25;;;;;3.13;91.55;98006.16;5013604;28;8858;-58
2021/01/30 06:25:38;;;;;;;;;20.00;13.75;;;;;3.24;91.60;98017.88;5013752;28;9670;-55
2021/01/30 06:28:31;;;;;;;;;22.25;17.00;;;;;3.23;90.91;98017.94;5013380;28;8983;-58
2021/01/30 06:31:25;;;;;;;;;20.75;10.00;;;;;3.51;90.41;98020.69;5012196;28;8853;-56
2021/01/30 06:34:01;;;;;;;;;16.67;14.00;;;;;3.73;89.78;98030.00;5011760;28;9569;-55
2021/01/30 06:36:32;;;;;;;;;34.50;32.25;;;;;4.00;89.46;98022.13;5029536;28;8836;-55
2021/01/30 06:39:12;;;;;;;;;76.50;58.00;;;;;4.92;84.77;98026.94;5014685;28;8896;-57
2021/01/30 06:41:42;;;;;;;;;28.00;23.00;;;;;5.39;84.98;98025.59;5013495;28;8855;-56
2021/01/30 06:44:26;;;;;;;;;49.50;41.75;;;;;6.49;79.69;98026.94;5028224;28;8878;-56
2021/01/30 06:47:19;;;;;;;;;62.00;43.00;;;;;5.25;82.12;98033.66;5023596;28;8841;-59
2021/01/30 06:49:54;;;;;;;;;31.67;23.67;;;;;5.25;84.37;98031.00;5017891;28;8941;-56
2021/01/30 06:52:29;;;;;;;;;26.33;19.33;;;;;4.71;86.48;98033.66;5013113;28;8915;-53
2021/01/30 06:55:05;;;;;;;;;22.00;17.33;;;;;4.62;87.47;98035.94;5010245;28;8846;-55
2021/01/30 06:57:47;;;;;;;;;36.33;22.67;;;;;4.97;85.42;98035.47;5009475;28;8837;-55
2021/01/30 07:00:17;;;;;;;;;26.67;23.00;;;;;5.72;84.28;98029.59;5009364;28;8880;-55
2021/01/30 07:02:48;;;;;;;;;31.67;21.33;;;;;7.45;75.74;98026.94;5007513;28;8847;-55
2021/01/30 07:05:44;;;;;;;;;12.00;11.33;;;;;5.46;83.44;98032.22;5013138;28;8961;-56
2021/01/30 07:08:49;;;;;;;;;11.00;9.00;;;;;5.53;84.84;98034.47;5013040;28;8874;-55
2021/01/30 07:11:45;;;;;;;;;8.00;6.33;;;;;5.28;84.28;98030.78;5004649;28;8819;-55
2021/01/30 07:14:51;;;;;;;;;11.33;8.00;;;;;4.79;85.86;98036.66;5005285;28;8863;-54
2021/01/30 07:17:51;;;;;;;;;8.00;5.67;;;;;4.62;86.75;98049.25;4995578;28;8920;-55
2021/01/30 07:20:43;;;;;;;;;13.33;9.00;;;;;6.49;83.84;98041.09;5011624;28;8843;-55
2021/01/30 07:23:41;;;;;;;;;20.33;13.00;;;;;6.06;78.37;98032.63;5012245;28;8831;-55
2021/01/30 07:26:24;;;;;;;;;9.33;9.00;;;;;6.75;78.74;98033.06;5012573;28;8851;-55
2021/01/30 07:29:02;;;;;;;;;25.33;18.33;;;;;5.85;81.22;98022.47;5009395;28;8884;-55
2021/01/30 07:31:54;;;;;;;;;25.33;24.33;;;;;5.57;84.32;98020.84;5012531;28;8854;-55
2021/01/30 07:34:42;;;;;;;;;27.33;18.33;;;;;5.29;84.29;98013.84;5012686;28;8851;-53
2021/01/30 07:37:38;;;;;;;;;18.00;13.00;;;;;5.69;84.65;98016.50;5012041;28;8851;-55
2021/01/30 07:40:21;;;;;;;;;14.00;13.00;;;;;5.91;82.50;98018.53;5011461;28;8895;-56
2021/01/30 07:43:07;;;;;;;;;15.00;12.00;;;;;5.67;83.85;98018.41;5027283;28;8909;-54
2021/01/30 07:45:44;;;;;;;;;11.33;9.67;;;;;5.93;84.32;98024.63;5027925;28;8839;-55
2021/01/30 07:48:26;;;;;;;;;17.00;12.67;;;;;5.63;83.96;98016.91;5028138;28;8948;-55
2021/01/30 07:51:00;;;;;;;;;15.67;12.00;;;;;6.18;84.43;98023.75;5027528;28;8842;-55
2021/01/30 07:53:28;;;;;;;;;15.67;15.67;;;;;6.31;83.52;98023.75;5027818;28;8839;-55
2021/01/30 07:56:19;;;;;;;;;6.00;2.00;;;;;6.65;82.31;98022.19;5010657;28;8903;-55
2021/01/30 07:59:25;;;;;;;;;14.33;13.00;;;;;6.30;81.20;98022.91;5011255;28;8871;-55
2021/01/30 08:02:16;;;;;;;;;12.33;12.00;;;;;6.16;82.66;98023.00;5011945;28;8893;-56
2021/01/30 08:05:35;;;;;;;;;15.67;12.67;;;;;6.13;83.36;98031.22;5012376;28;8985;-56
2021/01/30 08:08:18;;;;;;;;;16.00;12.33;;;;;6.53;82.23;98028.41;5011794;28;8873;-56
2021/01/30 08:11:23;;;;;;;;;20.00;12.33;;;;;6.80;80.93;98023.75;5009807;28;8878;-55
2021/01/30 08:14:50;;;;;;;;;10.00;10.00;;;;;6.94;79.92;98027.22;5009447;28;8843;-56
2021/01/30 08:17:40;;;;;;;;;21.67;16.00;;;;;7.12;79.97;98023.19;5011724;28;8827;-57
2021/01/30 08:20:17;;;;;;;;;18.00;12.33;;;;;6.98;80.16;98024.22;5011701;28;8835;-57
2021/01/30 08:23:11;;;;;;;;;11.33;9.00;;;;;7.08;80.32;98023.53;5012358;28;8846;-56
2021/01/30 08:25:55;;;;;;;;;13.00;11.33;;;;;7.46;78.64;98034.00;5011439;28;8862;-57
2021/01/30 08:28:37;;;;;;;;;7.33;6.33;;;;;7.25;78.43;98021.31;5005190;28;8865;-57
2021/01/30 08:31:04;;;;;;;;;9.33;8.00;;;;;7.00;79.37;98021.41;5007748;28;8864;-56
2021/01/30 08:34:10;;;;;;;;;10.00;7.33;;;;;7.21;79.65;98021.66;5009017;28;9325;-57
2021/01/30 08:36:44;;;;;;;;;13.67;8.33;;;;;7.38;77.95;98023.91;5010571;28;8843;-58
2021/01/30 08:39:34;;;;;;;;;8.67;7.33;;;;;8.27;77.13;98013.53;5010655;28;8835;-58
2021/01/30 08:42:19;;;;;;;;;13.00;10.00;;;;;7.78;78.12;98014.69;5006854;28;8831;-57
2021/01/30 08:44:48;;;;;;;;;15.00;12.33;;;;;7.96;77.12;98018.59;5004897;28;8867;-57
2021/01/30 08:47:30;;;;;;;;;15.00;13.00;;;;;7.93;77.80;98020.69;5010312;28;8981;-58
2021/01/30 08:50:48;;;;;;;;;19.67;13.00;;;;;8.48;76.49;98014.53;5008881;28;11557;-58
2021/01/30 08:53:46;;;;;;;;;5.00;5.00;;;;;8.22;75.90;98031.75;5008270;28;8931;-57
2021/01/30 08:56:49;;;;;;;;;7.00;6.00;;;;;8.28;75.13;98024.09;5025164;28;11521;-57
2021/01/30 08:59:47;;;;;;;;;9.33;6.00;;;;;8.64;75.10;98024.84;5008846;28;11562;-57
2021/01/30 09:02:29;;;;;;;;;6.00;3.00;;;;;8.48;74.93;98019.03;5025146;28;11511;-57
2021/01/30 09:05:22;;;;;;;;;5.00;5.00;;;;;8.17;74.47;98033.94;5009508;28;11599;-57
2021/01/30 09:07:58;;;;;;;;;8.33;5.00;;;;;8.12;75.25;98031.63;5008754;28;11571;-57
2021/01/30 09:10:33;;;;;;;;;5.33;5.00;;;;;8.16;76.82;98025.03;5026447;28;11518;-57
2021/01/30 09:13:21;;;;;;;;;9.33;6.00;;;;;8.59;72.36;98034.22;5011819;28;11608;-57
2021/01/30 09:15:48;;;;;;;;;10.00;9.00;;;;;8.48;74.40;98033.25;5028812;28;11609;-57
2021/01/30 09:18:41;;;;;;;;;5.00;5.00;;;;;8.07;75.41;98029.31;5013589;28;11660;-57
2021/01/30 09:21:18;;;;;;;;;6.00;5.67;;;;;8.11;74.96;98030.78;5025575;28;12266;-57
2021/01/30 09:24:22;;;;;;;;;10.00;9.00;;;;;8.54;73.00;98027.41;5013478;28;11500;-57
2021/01/30 09:27:12;;;;;;;;;6.00;3.00;;;;;8.56;72.62;98028.16;5021423;28;11620;-57
2021/01/30 09:29:44;;;;;;;;;6.00;3.00;;;;;8.90;72.19;98035.25;5011160;28;11522;-57
2021/01/30 09:36:30;;;;;;;;;6.00;3.00;;;;;8.54;73.48;98038.09;3312135;26;11592;-60
2021/01/30 09:38:59;;;;;;;;;5.00;4.33;;;;;8.70;72.56;98029.69;4950629;28;11558;-60
2021/01/30 09:41:36;;;;;;;;;3.00;3.00;;;;;8.77;73.62;98033.59;4961085;28;11551;-58
2021/01/30 09:44:22;;;;;;;;;2.75;1.25;;;;;8.80;72.27;98032.50;4948702;28;12250;-59
2021/01/30 09:47:01;;;;;;;;;10.50;5.00;;;;;8.81;71.22;98038.69;4949538;28;11528;-59
2021/01/30 09:49:44;;;;;;;;;4.50;3.50;;;;;8.56;72.56;98041.50;4965333;28;11625;-56
2021/01/30 09:52:16;;;;;;;;;9.67;9.00;;;;;8.01;75.32;98050.31;4953102;28;11520;-58
2021/01/30 09:54:43;;;;;;;;;13.00;11.67;;;;;7.83;76.08;98049.91;4951618;28;11578;-59
2021/01/30 09:57:24;;;;;;;;;13.67;10.00;;;;;7.41;77.92;98044.19;4929778;29;11723;-58
2021/01/30 10:00:00;;;;;;;;;14.00;12.67;;;;;7.00;78.65;98040.97;4948256;28;11621;-53
2021/01/30 10:02:31;;;;;;;;;17.33;14.33;;;;;7.43;79.44;98044.94;4947576;28;8851;-58
2021/01/30 10:05:13;;;;;;;;;19.00;16.33;;;;;7.24;78.82;98030.28;4956886;28;8855;-58
2021/01/30 10:07:42;;;;;;;;;18.33;13.33;;;;;7.38;78.86;98039.09;4948671;28;8897;-57
2021/01/30 10:10:27;;;;;;;;;14.33;9.00;;;;;7.05;79.90;98029.94;4949329;28;8861;-59
2021/01/30 10:12:58;;;;;;;;;21.00;14.00;;;;;7.08;79.33;98029.72;4949821;28;8905;-60
2021/01/30 10:15:36;;;;;;;;;22.00;17.00;;;;;6.84;80.36;98027.03;4977434;28;8870;-56
2021/01/30 10:18:20;;;;;;;;;26.00;21.00;;;;;6.81;80.82;98022.78;4947292;28;8890;-58
2021/01/30 10:20:50;;;;;;;;;20.00;17.00;;;;;6.72;80.90;98027.94;4946237;28;8984;-58
2021/01/30 10:23:35;;;;;;;;;20.67;16.67;;;;;6.79;80.83;98021.19;4947428;28;8949;-56
2021/01/30 10:26:12;;;;;;;;;27.33;19.33;;;;;6.73;80.73;98013.63;4943445;29;8853;-56
2021/01/30 10:28:49;;;;;;;;;24.33;20.67;;;;;6.75;80.53;98017.88;4946955;28;8902;-57
2021/01/30 10:31:27;;;;;;;;;21.33;20.33;;;;;6.87;80.57;98025.94;4973951;28;8874;-57
2021/01/30 10:34:23;;;;;;;;;25.67;20.67;;;;;7.02;80.28;98025.69;4964430;28;9703;-54
2021/01/30 10:37:12;;;;;;;;;26.67;24.67;;;;;7.31;79.53;98021.81;4919429;28;8882;-55
2021/01/30 10:39:47;;;;;;;;;23.33;21.67;;;;;7.50;80.08;98021.28;4946319;28;8859;-59
2021/01/30 10:42:24;;;;;;;;;22.67;20.00;;;;;7.80;78.86;98026.97;4948474;28;8855;-55
2021/01/30 10:45:17;;;;;;;;;26.67;22.33;;;;;7.75;79.01;98030.97;4947869;28;8989;-61
2021/01/30 10:48:00;;;;;;;;;30.67;26.67;;;;;7.94;78.03;98031.22;4959343;28;8966;-59
2021/01/30 10:50:33;;;;;;;;;32.67;26.33;;;;;7.91;78.76;98031.47;4947787;28;8882;-58
2021/01/30 10:53:35;;;;;;;;;31.00;23.00;;;;;7.67;78.05;98015.50;4949660;28;8851;-55
2021/01/30 10:56:19;;;;;;;;;29.67;24.67;;;;;7.65;78.88;98018.28;4948171;28;8874;-55
2021/01/30 10:58:51;;;;;;;;;26.00;22.00;;;;;7.63;78.67;98022.88;4947059;28;8881;-58
2021/01/30 11:01:18;;;;;;;;;28.33;26.67;;;;;7.63;78.77;98025.56;4963325;28;8863;-59
2021/01/30 11:03:55;;;;;;;;;28.00;22.33;;;;;7.73;79.00;98024.88;4948114;28;8827;-58
2021/01/30 11:07:00;;;;;;;;;23.50;20.50;;;;;7.93;78.21;98028.69;4138399;23;20542;-61
2021/01/30 11:09:31;;;;;;;;;33.67;24.33;;;;;7.76;79.12;98028.16;4948942;28;8873;-57
2021/01/30 11:12:14;;;;;;;;;31.00;26.33;;;;;7.83;78.72;98039.22;4935534;29;8857;-59
2021/01/30 11:14:43;;;;;;;;;24.67;21.33;;;;;7.94;77.73;98023.22;4962686;28;8859;-53
2021/01/30 11:17:34;;;;;;;;;22.00;18.00;;;;;8.70;77.05;98027.03;4969158;28;8959;-56
2021/01/30 11:20:04;;;;;;;;;33.00;24.67;;;;;8.42;76.97;98022.19;4941911;28;8954;-58
2021/01/30 11:22:31;;;;;;;;;25.33;23.67;;;;;8.68;76.46;98012.91;4949624;28;8862;-56
2021/01/30 11:25:14;;;;;;;;;27.33;22.00;;;;;9.04;75.25;98008.22;4934931;29;8845;-57
2021/01/30 11:27:46;;;;;;;;;27.67;19.33;;;;;8.97;74.55;97996.31;4951004;28;8989;-57
2021/01/30 11:30:23;;;;;;;;;32.33;24.00;;;;;8.55;75.28;98002.34;4954114;28;8952;-57
2021/01/30 11:33:14;;;;;;;;;31.33;22.67;;;;;8.82;76.27;97993.09;4955165;28;8854;-55
2021/01/30 11:35:45;;;;;;;;;25.33;23.67;;;;;9.07;73.75;97996.41;4954643;28;8890;-56
2021/01/30 11:38:17;;;;;;;;;26.67;23.00;;;;;9.16;74.41;97992.97;4961936;28;12221;-57
2021/01/30 11:40:48;;;;;;;;;23.00;20.67;;;;;9.23;73.62;97986.97;4955955;28;11632;-55
2021/01/30 11:43:15;;;;;;;;;26.00;21.33;;;;;8.91;74.04;97986.13;4954790;28;11611;-53
2021/01/30 11:45:42;;;;;;;;;20.00;18.67;;;;;8.79;75.04;97978.13;4960151;28;11619;-55
2021/01/30 11:48:10;;;;;;;;;21.33;18.67;;;;;8.93;74.51;97974.31;4952903;28;8842;-54
2021/01/30 11:50:37;;;;;;;;;18.67;18.67;;;;;9.09;73.58;97967.69;4955543;28;8866;-54
2021/01/30 11:53:14;;;;;;;;;29.67;22.67;;;;;9.04;73.43;97961.88;4953509;28;8834;-53
2021/01/30 11:55:42;;;;;;;;;22.67;17.33;;;;;9.06;73.81;97952.75;4955525;28;11624;-57
2021/01/30 11:58:10;;;;;;;;;21.00;17.33;;;;;9.38;73.25;97957.22;4960012;28;8828;-54
2021/01/30 12:00:38;;;;;;;;;18.00;14.67;;;;;9.42;71.91;97956.81;4963362;28;11611;-56
2021/01/30 12:03:06;;;;;;;;;20.33;16.00;;;;;8.85;74.62;97947.34;4966934;28;11639;-53
2021/01/30 12:05:33;;;;;;;;;19.00;15.00;;;;;8.90;74.33;97941.59;4973897;28;11670;-55
2021/01/30 12:08:00;;;;;;;;;20.33;15.67;;;;;9.45;72.79;97942.31;4957956;28;11666;-53
2021/01/30 12:10:27;;;;;;;;;18.00;15.33;;;;;9.31;72.06;97946.16;4957924;28;11589;-54
2021/01/30 12:12:56;;;;;;;;;25.00;19.00;;;;;9.09;72.83;97946.28;4961970;28;11641;-56
2021/01/30 12:15:23;;;;;;;;;25.67;19.67;;;;;9.06;74.14;97946.50;4963333;28;11737;-56
2021/01/30 12:17:51;;;;;;;;;23.67;18.67;;;;;8.89;74.06;97940.75;4964521;28;11601;-56
2021/01/30 12:20:22;;;;;;;;;28.00;24.00;;;;;8.90;74.31;97949.59;4957421;28;11669;-55
2021/01/30 12:22:49;;;;;;;;;21.67;17.33;;;;;8.75;73.83;97938.38;4962807;28;11610;-55
2021/01/30 12:25:18;;;;;;;;;22.00;19.33;;;;;8.82;73.67;97936.88;4950350;28;11683;-56
2021/01/30 12:27:55;;;;;;;;;22.00;18.00;;;;;8.66;72.95;97933.75;4954437;28;8843;-56
2021/01/30 12:30:27;;;;;;;;;25.00;19.00;;;;;8.81;73.01;97921.78;4954646;28;8887;-56
2021/01/30 12:32:56;;;;;;;;;21.33;18.00;;;;;8.76;73.16;97918.66;4954560;28;11594;-56